Time;durP1;ratioP1;P1;durP2;ratioP2;P2;SDS_P1;SDS_P2;PMS_P1;PMS_P2;Temp;Humidity;BMP_temperature;BMP_pressure;BME280_temperature;BME280_humidity;BME280_pressure;Samples;Min_cycle;Max_cycle;Signal;HPM_P1;HPM_P2
2024/02/16 00:01:37;;;;;;;1.65;1.55;;;;;;;11.97;53.30;100626.25;4224570;33;34082;-82
2024/02/16 00:04:05;;;;;;;3.05;2.58;;;;;;;12.09;52.79;100624.94;4216443;33;34720;-82
2024/02/16 00:06:33;;;;;;;1.85;1.75;;;;;;;11.93;53.32;100629.94;4211995;33;33915;-82
2024/02/16 00:09:01;;;;;;;3.28;2.00;;;;;;;11.48;54.78;100630.56;4212093;33;32249;-82
2024/02/16 00:11:30;;;;;;;3.03;2.83;;;;;;;11.68;54.19;100629.03;4213356;33;34116;-82
2024/02/16 00:13:58;;;;;;;5.28;2.90;;;;;;;11.71;54.18;100628.94;4220798;33;33875;-82
2024/02/16 00:16:26;;;;;;;5.50;3.08;;;;;;;11.80;53.69;100624.16;4224488;33;33553;-82
2024/02/16 00:18:54;;;;;;;4.00;3.47;;;;;;;11.63;54.31;100625.69;4209364;33;33124;-82
2024/02/16 00:21:22;;;;;;;4.12;1.92;;;;;;;11.74;53.93;100626.19;4221255;33;34060;-81
2024/02/16 00:23:49;;;;;;;3.67;2.97;;;;;;;11.68;54.34;100618.44;4226832;33;34334;-82
2024/02/16 00:26:17;;;;;;;2.42;2.08;;;;;;;11.61;54.51;100617.81;4211926;33;32247;-81
2024/02/16 00:28:46;;;;;;;2.97;1.95;;;;;;;11.60;54.51;100620.50;4224087;33;33871;-82
2024/02/16 00:31:14;;;;;;;5.62;2.28;;;;;;;11.70;53.95;100619.28;4222468;33;33640;-82
2024/02/16 00:33:42;;;;;;;3.20;2.55;;;;;;;11.76;53.89;100624.34;4236368;33;34265;-83
2024/02/16 00:36:10;;;;;;;4.47;3.87;;;;;;;11.68;54.13;100618.44;4199046;33;34534;-84
2024/02/16 00:38:38;;;;;;;2.05;1.95;;;;;;;11.66;54.08;100623.78;4213698;33;33400;-83
2024/02/16 00:41:07;;;;;;;3.35;2.50;;;;;;;11.66;53.68;100620.28;4192148;33;34107;-81
2024/02/16 00:43:35;;;;;;;6.35;4.65;;;;;;;11.55;54.12;100618.03;4203486;33;33305;-81
2024/02/16 00:46:02;;;;;;;4.95;2.05;;;;;;;11.68;53.75;100616.69;4209953;33;33574;-81
2024/02/16 00:48:30;;;;;;;2.95;2.72;;;;;;;11.70;53.71;100619.28;4222033;33;34194;-83
2024/02/16 00:50:58;;;;;;;4.18;3.65;;;;;;;11.42;54.18;100616.72;4197955;33;35322;-82
2024/02/16 00:53:26;;;;;;;2.70;2.55;;;;;;;11.49;53.90;100613.81;4201195;33;33769;-81
2024/02/16 00:55:54;;;;;;;2.03;1.35;;;;;;;11.57;53.72;100623.25;4211235;33;32851;-81
2024/02/16 00:58:21;;;;;;;8.15;3.90;;;;;;;11.61;53.75;100620.44;4221602;33;33885;-81
2024/02/16 01:00:49;;;;;;;2.72;2.00;;;;;;;11.62;53.75;100616.87;4213424;33;34093;-82
2024/02/16 01:03:17;;;;;;;2.83;2.62;;;;;;;11.68;53.60;100624.63;4200782;33;33971;-82
2024/02/16 01:05:45;;;;;;;2.85;0.82;;;;;;;11.60;54.01;100620.50;4223747;33;33601;-81
2024/02/16 01:08:12;;;;;;;9.18;2.17;;;;;;;11.63;53.83;100625.69;4221658;33;34031;-82
2024/02/16 01:10:40;;;;;;;2.55;2.20;;;;;;;11.60;53.74;100616.09;4222604;33;35178;-81
2024/02/16 01:13:08;;;;;;;4.37;2.35;;;;;;;11.58;53.75;100617.91;4223353;33;34066;-82
2024/02/16 01:15:37;;;;;;;3.03;2.60;;;;;;;11.62;53.66;100616.03;4229501;33;33822;-81
2024/02/16 01:18:05;;;;;;;2.53;2.37;;;;;;;11.51;53.74;100619.91;4201827;33;33628;-81
2024/02/16 01:20:33;;;;;;;2.83;2.33;;;;;;;11.56;53.46;100618.88;4221790;33;34270;-81
2024/02/16 01:23:00;;;;;;;4.30;2.67;;;;;;;11.53;53.37;100612.75;4223450;33;33356;-81
2024/02/16 01:25:29;;;;;;;2.83;1.62;;;;;;;11.46;53.37;100613.91;4212053;33;33706;-82
2024/02/16 01:27:56;;;;;;;2.15;1.75;;;;;;;11.32;53.55;100616.16;4196486;33;34629;-81
2024/02/16 01:30:24;;;;;;;1.25;1.15;;;;;;;11.20;53.84;100611.28;4214065;33;34137;-81
2024/02/16 01:32:52;;;;;;;2.22;2.03;;;;;;;11.25;53.52;100610.22;4194618;33;34610;-81
2024/02/16 01:35:19;;;;;;;8.85;1.95;;;;;;;11.27;53.45;100618.97;4213010;33;33537;-81
2024/02/16 01:37:47;;;;;;;2.42;2.05;;;;;;;11.16;53.65;100614.97;4223603;33;33898;-81
2024/02/16 01:40:17;;;;;;;1.42;1.35;;;;;;;11.00;54.02;100620.72;4201205;33;33406;-82
2024/02/16 01:42:47;;;;;;;2.83;1.58;;;;;;;10.88;54.32;100615.84;4202978;33;34952;-83
2024/02/16 01:45:16;;;;;;;1.02;1.02;;;;;;;10.91;54.06;100617.50;4200505;33;34252;-82
2024/02/16 01:47:46;;;;;;;1.42;1.33;;;;;;;10.82;54.09;100621.31;4204208;33;33888;-82
2024/02/16 01:50:15;;;;;;;6.90;1.83;;;;;;;10.73;54.14;100613.69;4236455;33;36405;-82
2024/02/16 01:52:44;;;;;;;0.98;0.95;;;;;;;10.69;53.96;100614.69;4212137;34;34274;-82
2024/02/16 01:55:12;;;;;;;5.28;2.58;;;;;;;10.80;53.58;100611.72;4199803;33;33369;-82
2024/02/16 01:57:40;;;;;;;4.55;1.95;;;;;;;10.73;53.71;100616.34;4202557;33;33522;-82
2024/02/16 02:00:08;;;;;;;4.72;1.75;;;;;;;10.64;53.53;100606.91;4212774;33;34087;-82
2024/02/16 02:02:37;;;;;;;1.23;1.10;;;;;;;10.62;53.33;100607.88;4202697;33;32888;-82
2024/02/16 02:05:04;;;;;;;2.37;2.15;;;;;;;10.71;53.39;100607.59;4213100;33;33557;-81
2024/02/16 02:07:33;;;;;;;1.70;1.60;;;;;;;10.58;53.57;100606.22;4213819;33;34423;-81
2024/02/16 02:10:01;;;;;;;3.08;1.55;;;;;;;10.63;53.33;100599.87;4221465;33;34123;-81
2024/02/16 02:12:28;;;;;;;1.95;1.40;;;;;;;10.45;53.28;100603.97;4202980;33;34133;-81
2024/02/16 02:14:56;;;;;;;1.98;1.83;;;;;;;10.38;53.74;100602.41;4227917;33;33597;-81
2024/02/16 02:17:24;;;;;;;6.25;3.05;;;;;;;10.24;54.04;100594.03;4224193;33;34648;-81
2024/02/16 02:19:52;;;;;;;3.80;2.03;;;;;;;10.32;53.91;100593.84;4224015;33;34783;-81
2024/02/16 02:22:20;;;;;;;1.27;1.25;;;;;;;10.16;54.29;100596.00;4222206;33;34614;-81
2024/02/16 02:24:49;;;;;;;1.30;1.20;;;;;;;10.18;54.29;100591.56;4204284;33;32386;-81
2024/02/16 02:27:16;;;;;;;1.90;1.80;;;;;;;10.25;53.95;100599.31;4237886;33;33599;-80
2024/02/16 02:29:44;;;;;;;5.45;3.10;;;;;;;10.25;53.92;100595.78;4214227;33;34986;-81
2024/02/16 02:32:13;;;;;;;2.70;2.40;;;;;;;10.21;54.23;100597.63;4201104;33;33616;-81
2024/02/16 02:34:40;;;;;;;8.57;2.17;;;;;;;10.30;53.83;100595.63;4226781;33;33321;-81
2024/02/16 02:37:08;;;;;;;1.30;1.10;;;;;;;10.36;53.84;100593.69;4203809;33;34807;-82
2024/02/16 02:39:37;;;;;;;1.42;1.35;;;;;;;10.16;54.02;100599.53;4225777;33;33816;-82
2024/02/16 02:42:04;;;;;;;20.48;1.80;;;;;;;9.98;54.77;100600.06;4202706;33;33134;-82
2024/02/16 02:44:32;;;;;;;1.75;1.65;;;;;;;9.99;54.72;100592.09;4226042;33;33789;-82
2024/02/16 02:47:00;;;;;;;1.15;1.15;;;;;;;9.98;54.83;100600.94;4225303;33;33851;-81
2024/02/16 02:49:28;;;;;;;5.47;3.20;;;;;;;10.18;54.31;100596.84;4223620;33;33900;-81
2024/02/16 02:51:56;;;;;;;1.73;1.62;;;;;;;10.17;54.21;100600.41;4224341;33;34064;-81
2024/02/16 02:54:24;;;;;;;2.00;1.42;;;;;;;9.93;54.63;100602.84;4225179;33;34312;-82
2024/02/16 02:56:51;;;;;;;1.05;1.05;;;;;;;10.01;54.59;100595.53;4224542;33;34450;-81
2024/02/16 02:59:19;;;;;;;2.35;2.15;;;;;;;9.72;54.98;100598.12;4234683;33;34743;-82
2024/02/16 03:01:47;;;;;;;0.57;0.57;;;;;;;9.84;54.95;100603.09;4212745;33;33524;-81
2024/02/16 03:04:15;;;;;;;1.52;1.52;;;;;;;9.93;54.72;100599.34;4202266;33;34314;-81
2024/02/16 03:06:43;;;;;;;1.10;1.00;;;;;;;9.94;54.45;100604.56;4223030;33;34876;-81
2024/02/16 03:09:12;;;;;;;2.70;2.10;;;;;;;9.95;54.28;100608.91;4198412;33;33911;-81
2024/02/16 03:11:40;;;;;;;2.28;2.08;;;;;;;9.91;54.30;100609.91;4210589;33;34798;-80
2024/02/16 03:14:08;;;;;;;1.45;1.20;;;;;;;9.89;54.01;100606.47;4228624;33;33694;-81
2024/02/16 03:16:36;;;;;;;5.93;3.10;;;;;;;9.88;54.20;100606.50;4211596;33;33632;-81
2024/02/16 03:19:06;;;;;;;1.87;1.77;;;;;;;9.81;54.35;100607.56;4233348;33;33961;-81
2024/02/16 03:21:35;;;;;;;3.37;3.03;;;;;;;9.65;54.71;100607.13;4201378;33;34276;-80
2024/02/16 03:24:06;;;;;;;2.53;2.33;;;;;;;9.55;55.15;100606.53;4213369;33;33322;-80
2024/02/16 03:26:34;;;;;;;3.87;2.55;;;;;;;9.55;55.12;100606.53;4212619;33;33509;-80
2024/02/16 03:29:01;;;;;;;2.33;0.95;;;;;;;9.62;54.75;100609.84;4203710;33;34034;-80
2024/02/16 03:31:29;;;;;;;1.95;1.70;;;;;;;9.46;54.86;100597.09;4209494;33;33056;-81
2024/02/16 03:33:57;;;;;;;1.35;1.25;;;;;;;9.36;54.98;100608.78;4199689;33;32658;-81
2024/02/16 03:36:25;;;;;;;0.50;0.50;;;;;;;9.35;55.05;100604.41;4211535;33;34750;-80
2024/02/16 03:38:53;;;;;;;3.72;1.25;;;;;;;9.32;54.98;100600.97;4214566;33;33919;-81
2024/02/16 03:41:22;;;;;;;1.12;1.08;;;;;;;9.22;55.47;100597.72;4225959;33;35082;-80
2024/02/16 03:43:51;;;;;;;4.22;2.00;;;;;;;9.16;55.60;100603.13;4213577;33;32472;-80
2024/02/16 03:46:19;;;;;;;2.33;2.12;;;;;;;9.13;55.48;100603.22;4223741;33;34857;-81
2024/02/16 03:48:47;;;;;;;1.83;1.67;;;;;;;9.00;55.91;100607.91;4222689;33;34013;-81
2024/02/16 03:51:15;;;;;;;1.33;1.23;;;;;;;8.93;55.82;100601.94;4211770;33;35046;-82
2024/02/16 03:53:46;;;;;;;3.37;3.10;;;;;;;8.91;56.04;100603.72;4221983;33;32207;-81
2024/02/16 03:56:20;;;;;;;1.42;1.33;;;;;;;8.81;56.08;100598.72;4214470;33;33268;-83
2024/02/16 03:58:49;;;;;;;1.25;1.23;;;;;;;8.81;56.31;100607.50;4202025;33;33606;-82
2024/02/16 04:01:16;;;;;;;5.18;2.55;;;;;;;8.85;56.12;100608.28;4210474;33;33779;-83
2024/02/16 04:03:44;;;;;;;2.65;2.47;;;;;;;8.69;56.54;100608.66;4210647;33;32707;-82
2024/02/16 04:06:12;;;;;;;2.53;2.17;;;;;;;8.60;56.94;100613.25;4198617;33;33682;-82
2024/02/16 04:08:40;;;;;;;1.52;1.27;;;;;;;8.53;57.07;100617.78;4223391;33;34003;-80
2024/02/16 04:11:11;;;;;;;1.95;1.45;;;;;;;8.72;56.22;100618.22;4223747;33;34109;-80
2024/02/16 04:13:39;;;;;;;5.20;1.52;;;;;;;8.64;56.72;100630.69;4201607;33;33612;-80
2024/02/16 04:16:07;;;;;;;2.12;1.30;;;;;;;8.36;57.35;100620.81;4199562;33;32782;-80
2024/02/16 04:18:35;;;;;;;0.98;0.98;;;;;;;8.47;57.17;100625.81;4223206;33;34100;-81
2024/02/16 04:21:03;;;;;;;1.42;1.23;;;;;;;8.41;56.93;100618.94;4225683;33;33873;-81
2024/02/16 04:23:32;;;;;;;2.10;1.73;;;;;;;8.42;57.36;100618.03;4201550;33;33741;-81
2024/02/16 04:25:59;;;;;;;2.08;1.62;;;;;;;8.26;57.27;100621.88;4211843;33;33757;-81
2024/02/16 04:28:27;;;;;;;3.70;1.77;;;;;;;8.31;57.45;100622.63;4212645;33;34193;-81
2024/02/16 04:30:55;;;;;;;3.47;1.33;;;;;;;8.23;57.72;100629.81;4188397;33;35411;-81
2024/02/16 04:33:23;;;;;;;1.52;1.42;;;;;;;8.15;57.86;100631.72;4210886;33;34045;-81
2024/02/16 04:35:51;;;;;;;1.23;1.20;;;;;;;8.20;57.73;100632.50;4236839;33;34785;-81
2024/02/16 04:38:19;;;;;;;1.35;1.35;;;;;;;8.22;58.00;100628.09;4199951;33;33160;-81
2024/02/16 04:40:47;;;;;;;1.65;1.55;;;;;;;8.19;58.09;100636.03;4198792;34;34184;-81
2024/02/16 04:43:16;;;;;;;2.95;2.65;;;;;;;8.29;57.69;100628.81;4202046;33;33551;-81
2024/02/16 04:45:44;;;;;;;1.83;1.40;;;;;;;8.18;58.17;100636.94;4210368;33;33328;-81
2024/02/16 04:48:11;;;;;;;1.17;1.15;;;;;;;8.19;57.85;100634.25;4223737;33;33961;-81
2024/02/16 04:50:39;;;;;;;0.17;0.17;;;;;;;7.95;58.56;100640.87;4211380;33;34720;-81
2024/02/16 04:53:07;;;;;;;2.03;1.92;;;;;;;8.07;57.97;100638.91;4188186;33;33135;-81
2024/02/16 04:55:35;;;;;;;0.82;0.82;;;;;;;8.09;57.94;100645.00;4213415;33;34708;-81
2024/02/16 04:58:09;;;;;;;3.60;1.62;;;;;;;8.06;57.87;100645.94;4199031;33;34501;-81
2024/02/16 05:00:37;;;;;;;1.60;1.48;;;;;;;8.03;58.13;100639.88;4211296;33;34171;-81
2024/02/16 05:03:05;;;;;;;2.83;2.08;;;;;;;7.85;58.83;100644.59;4209324;33;33356;-81
2024/02/16 05:05:32;;;;;;;2.40;2.15;;;;;;;7.85;58.61;100636.72;4211394;33;33939;-81
2024/02/16 05:08:00;;;;;;;0.37;0.37;;;;;;;7.84;58.88;100637.59;4214197;33;34103;-80
2024/02/16 05:10:28;;;;;;;1.60;1.50;;;;;;;7.93;58.58;100639.19;4212454;33;32714;-81
2024/02/16 05:12:58;;;;;;;3.78;2.33;;;;;;;7.85;59.01;100636.72;4210788;33;33018;-81
2024/02/16 05:15:26;;;;;;;2.15;1.92;;;;;;;7.89;58.64;100646.28;4223635;33;33958;-81
2024/02/16 05:17:53;;;;;;;1.25;1.15;;;;;;;7.78;59.00;100642.97;4201730;33;35632;-81
2024/02/16 05:20:21;;;;;;;1.00;1.00;;;;;;;7.65;58.87;100634.47;4225491;33;34154;-81
2024/02/16 05:22:49;;;;;;;1.62;1.52;;;;;;;7.59;59.10;100644.19;4211342;33;32416;-81
2024/02/16 05:25:17;;;;;;;3.35;2.42;;;;;;;7.79;58.71;100649.97;4222113;33;33693;-81
2024/02/16 05:27:47;;;;;;;1.05;1.05;;;;;;;7.65;59.28;100644.97;4201300;33;34087;-80
2024/02/16 05:30:15;;;;;;;6.90;1.58;;;;;;;7.64;59.26;100651.13;4215176;33;35215;-80
2024/02/16 05:32:44;;;;;;;1.73;1.62;;;;;;;7.59;59.06;100644.19;4210524;33;33743;-80
2024/02/16 05:35:14;;;;;;;2.12;1.95;;;;;;;7.67;58.88;100653.69;4236474;33;33754;-80
2024/02/16 05:37:51;;;;;;;3.40;1.42;;;;;;;7.59;59.22;100654.72;4211405;33;33930;-81
2024/02/16 05:40:24;;;;;;;1.60;1.50;;;;;;;7.58;59.26;100652.97;4212354;33;34856;-83
2024/02/16 05:42:53;;;;;;;4.30;3.90;;;;;;;7.41;59.60;100648.91;4230044;33;33753;-83
2024/02/16 05:45:21;;;;;;;3.05;2.12;;;;;;;7.44;59.46;100654.09;4201901;33;33772;-84
2024/02/16 05:47:49;;;;;;;2.42;2.25;;;;;;;7.43;59.19;100654.97;4222519;33;34230;-84
2024/02/16 05:50:17;;;;;;;4.97;1.92;;;;;;;7.47;59.19;100653.19;4201706;33;33733;-84
2024/02/16 05:52:46;;;;;;;1.62;1.52;;;;;;;7.39;59.59;100655.06;4211418;34;32577;-84
2024/02/16 05:55:14;;;;;;;4.07;2.22;;;;;;;7.43;59.50;100657.63;4213321;33;33956;-84
2024/02/16 05:57:42;;;;;;;2.37;2.17;;;;;;;7.43;59.38;100662.88;4222199;33;35145;-82
2024/02/16 06:00:13;;;;;;;3.47;2.17;;;;;;;7.52;59.14;100661.84;4213043;33;34971;-81
2024/02/16 06:02:42;;;;;;;3.40;3.10;;;;;;;7.28;59.79;100663.13;4202029;33;33668;-83
2024/02/16 06:05:10;;;;;;;0.88;0.88;;;;;;;7.37;59.63;100657.72;4226304;33;33320;-82
2024/02/16 06:07:39;;;;;;;1.42;1.33;;;;;;;7.53;59.27;100660.09;4225265;33;35013;-82
2024/02/16 06:10:10;;;;;;;2.10;1.30;;;;;;;7.54;59.16;100664.44;4224549;33;32484;-83
2024/02/16 06:12:39;;;;;;;0.82;0.82;;;;;;;7.60;59.30;100664.34;4201822;33;31909;-82
2024/02/16 06:15:08;;;;;;;6.37;3.03;;;;;;;7.57;59.50;100672.28;4218229;33;33999;-82
2024/02/16 06:17:37;;;;;;;0.22;0.22;;;;;;;7.61;60.03;100668.72;4217020;33;33932;-84
2024/02/16 06:20:05;;;;;;;1.05;1.05;;;;;;;7.60;60.02;100667.84;4216479;33;34822;-85
2024/02/16 06:22:33;;;;;;;1.98;1.87;;;;;;;7.74;59.99;100666.69;4224174;33;33900;-85
2024/02/16 06:25:01;;;;;;;2.55;2.42;;;;;;;7.42;61.83;100676.91;4224059;33;33654;-84
2024/02/16 06:27:29;;;;;;;1.80;1.70;;;;;;;7.37;61.66;100673.50;4204390;33;34052;-84
2024/02/16 06:29:56;;;;;;;3.10;2.87;;;;;;;7.83;60.81;100671.78;4199568;33;33983;-84
2024/02/16 06:32:24;;;;;;;1.48;1.40;;;;;;;7.86;60.93;100672.62;4215387;33;33650;-84
2024/02/16 06:34:52;;;;;;;5.18;2.53;;;;;;;8.04;60.56;100683.69;4204361;33;34149;-84
2024/02/16 06:37:20;;;;;;;2.30;2.20;;;;;;;8.12;60.52;100682.66;4213406;33;34490;-84
2024/02/16 06:39:48;;;;;;;7.20;2.65;;;;;;;8.20;60.63;100687.75;4223115;33;33955;-84
2024/02/16 06:42:16;;;;;;;4.95;3.40;;;;;;;8.25;60.44;100685.88;4217357;33;33595;-84
2024/02/16 06:44:44;;;;;;;2.75;2.55;;;;;;;8.43;60.17;100690.81;4223308;33;31238;-83
2024/02/16 06:47:12;;;;;;;2.70;2.50;;;;;;;8.54;60.01;100692.34;4200388;33;34603;-83
2024/02/16 06:49:40;;;;;;;2.45;2.25;;;;;;;8.44;60.38;100692.53;4201131;33;34306;-83
2024/02/16 06:52:09;;;;;;;11.20;3.95;;;;;;;8.69;59.85;100692.91;4214234;33;34508;-83
2024/02/16 06:54:37;;;;;;;1.73;1.65;;;;;;;8.43;61.29;100701.34;4213201;33;33855;-83
2024/02/16 06:57:05;;;;;;;1.52;1.42;;;;;;;8.61;61.08;100708.00;4213230;33;33729;-83
2024/02/16 06:59:36;;;;;;;4.22;3.20;;;;;;;8.65;61.07;100693.00;4204178;33;33872;-83
2024/02/16 07:02:04;;;;;;;1.80;1.70;;;;;;;8.61;60.94;100709.75;4205101;33;31666;-83
2024/02/16 07:04:32;;;;;;;6.70;3.37;;;;;;;8.97;59.76;100708.06;4216861;33;34007;-83
2024/02/16 07:07:00;;;;;;;3.87;3.67;;;;;;;8.97;59.99;100708.97;4204803;33;33770;-83
2024/02/16 07:09:29;;;;;;;3.37;2.17;;;;;;;8.97;59.74;100714.25;4205958;33;34616;-82
2024/02/16 07:11:58;;;;;;;2.83;2.62;;;;;;;8.86;60.31;100716.22;4225160;33;33296;-83
2024/02/16 07:14:26;;;;;;;2.60;1.90;;;;;;;9.09;59.67;100720.12;4214850;33;34402;-83
2024/02/16 07:16:54;;;;;;;2.87;2.70;;;;;;;9.38;58.50;100720.28;4216467;33;31803;-83
2024/02/16 07:19:22;;;;;;;3.10;2.83;;;;;;;8.82;60.01;100719.81;4204113;33;33661;-83
2024/02/16 07:21:50;;;;;;;1.70;1.60;;;;;;;9.25;58.74;100718.84;4225984;33;33585;-83
2024/02/16 07:24:18;;;;;;;2.08;1.95;;;;;;;9.19;58.70;100719.84;4223381;33;34000;-84
2024/02/16 07:26:46;;;;;;;2.72;2.53;;;;;;;9.29;58.21;100715.25;4212778;33;33730;-83
2024/02/16 07:29:16;;;;;;;2.17;1.92;;;;;;;9.09;58.61;100722.75;4205096;33;34037;-83
2024/02/16 07:31:44;;;;;;;3.22;2.25;;;;;;;9.32;57.91;100720.44;4203385;33;34194;-83
2024/02/16 07:34:12;;;;;;;4.57;4.18;;;;;;;9.27;58.20;100724.09;4226815;33;33662;-83
2024/02/16 07:36:40;;;;;;;4.03;3.67;;;;;;;9.13;57.68;100719.16;4204033;33;34452;-83
2024/02/16 07:39:11;;;;;;;1.05;0.98;;;;;;;9.16;57.50;100719.94;4212570;33;35102;-83
2024/02/16 07:41:39;;;;;;;2.08;1.98;;;;;;;9.21;57.90;100720.72;4222583;33;33989;-81
2024/02/16 07:44:08;;;;;;;2.12;1.92;;;;;;;9.27;57.33;100721.47;4211325;33;34348;-80
2024/02/16 07:46:42;;;;;;;2.50;2.12;;;;;;;9.27;57.33;100719.69;4203326;33;35067;-81
2024/02/16 07:49:13;;;;;;;4.30;3.08;;;;;;;9.39;56.90;100722.00;4208967;33;31842;-81
2024/02/16 07:51:41;;;;;;;6.25;4.32;;;;;;;9.30;57.06;100716.97;4204140;33;34107;-81
2024/02/16 07:54:09;;;;;;;1.70;1.55;;;;;;;9.64;55.98;100716.16;4212945;33;37105;-80
2024/02/16 07:56:37;;;;;;;3.22;2.97;;;;;;;9.70;55.81;100718.63;4215098;33;31370;-81
2024/02/16 07:59:04;;;;;;;5.37;4.50;;;;;;;9.98;55.53;100714.38;4210755;33;34014;-81
2024/02/16 08:01:32;;;;;;;5.07;4.68;;;;;;;9.15;56.90;100712.06;4207415;33;32433;-81
2024/02/16 08:04:01;;;;;;;2.60;1.95;;;;;;;9.38;56.45;100715.03;4215017;33;33677;-81
2024/02/16 08:06:33;;;;;;;2.92;2.72;;;;;;;9.84;55.23;100707.75;4223820;33;34179;-81
2024/02/16 08:09:04;;;;;;;2.70;2.03;;;;;;;9.42;55.49;100715.81;4216636;33;33161;-80
2024/02/16 08:11:32;;;;;;;2.55;1.92;;;;;;;9.78;55.23;100716.69;4198583;33;32926;-81
2024/02/16 08:14:00;;;;;;;1.33;1.23;;;;;;;9.63;55.87;100710.00;4205076;33;33318;-81
2024/02/16 08:16:29;;;;;;;1.75;1.25;;;;;;;9.86;53.87;100712.06;4214919;33;34810;-81
2024/02/16 08:18:57;;;;;;;1.30;1.27;;;;;;;10.06;53.05;100706.22;4215555;33;33951;-81
2024/02/16 08:21:25;;;;;;;3.70;2.35;;;;;;;10.37;52.41;100703.66;4204222;33;33689;-81
2024/02/16 08:23:53;;;;;;;1.55;1.45;;;;;;;10.51;51.71;100696.22;4225261;33;33121;-81
2024/02/16 08:26:21;;;;;;;1.00;1.00;;;;;;;10.54;50.75;100707.56;4217209;33;31972;-81
2024/02/16 08:28:48;;;;;;;1.33;1.08;;;;;;;10.25;51.40;100704.00;4223073;33;34127;-81
2024/02/16 08:31:18;;;;;;;2.60;1.37;;;;;;;10.31;51.44;100703.84;4214527;33;33480;-81
2024/02/16 08:33:46;;;;;;;1.45;1.35;;;;;;;10.33;51.55;100704.66;4204411;33;33479;-81
2024/02/16 08:36:15;;;;;;;2.45;1.37;;;;;;;10.53;50.33;100706.72;4222057;33;33551;-81
2024/02/16 08:38:43;;;;;;;2.65;1.52;;;;;;;10.75;50.14;100705.19;4213405;33;34300;-81
2024/02/16 08:41:11;;;;;;;2.45;2.25;;;;;;;11.05;48.83;100707.78;4227404;33;33735;-81
2024/02/16 08:43:39;;;;;;;0.98;0.82;;;;;;;10.97;48.98;100715.97;4217082;33;33660;-81
2024/02/16 08:46:07;;;;;;;3.72;2.85;;;;;;;11.04;48.21;100706.06;4212850;33;33891;-81
2024/02/16 08:48:36;;;;;;;4.57;2.90;;;;;;;11.51;47.09;100712.47;4202763;33;34446;-81
2024/02/16 08:51:04;;;;;;;1.45;1.35;;;;;;;11.51;45.85;100711.59;4213090;33;34087;-81
2024/02/16 08:53:31;;;;;;;3.17;1.75;;;;;;;11.15;46.25;100713.66;4222309;33;33686;-83
2024/02/16 08:55:59;;;;;;;4.03;1.37;;;;;;;11.38;45.29;100708.50;4204549;33;34163;-83
2024/02/16 08:58:26;;;;;;;1.95;1.80;;;;;;;11.32;45.73;100719.28;4203673;33;33652;-81
2024/02/16 09:00:54;;;;;;;0.30;0.30;;;;;;;11.25;45.50;100717.72;4201648;33;32976;-80
2024/02/16 09:03:24;;;;;;;1.83;1.23;;;;;;;11.23;45.04;100722.22;4201026;33;34759;-81
2024/02/16 09:05:52;;;;;;;1.75;1.65;;;;;;;11.44;44.47;100716.25;4204012;33;33755;-81
2024/02/16 09:08:20;;;;;;;11.95;2.15;;;;;;;11.50;45.16;100721.34;4222469;33;35826;-81
2024/02/16 09:10:49;;;;;;;1.87;1.65;;;;;;;12.03;44.06;100710.72;4211311;33;33728;-81
2024/02/16 09:13:18;;;;;;;1.70;1.60;;;;;;;12.07;43.42;100708.00;4214652;33;32040;-82
2024/02/16 09:16:01;;;;;;;2.40;1.62;;;;;;;12.46;42.17;100714.47;4205516;33;35421;-81
2024/02/16 09:18:29;;;;;;;0.93;0.93;;;;;;;12.44;42.22;100720.78;4204789;33;35055;-81
2024/02/16 09:20:57;;;;;;;0.52;0.40;;;;;;;12.48;42.05;100709.13;4234264;33;34340;-81
2024/02/16 09:23:26;;;;;;;2.10;1.58;;;;;;;12.25;42.31;100715.28;4217763;33;32719;-82
2024/02/16 09:25:54;;;;;;;2.83;2.17;;;;;;;12.69;41.27;100710.97;4225149;33;34568;-81
2024/02/16 09:28:22;;;;;;;1.27;1.12;;;;;;;12.76;40.16;100716.91;4191581;33;33488;-81
2024/02/16 09:30:57;;;;;;;3.33;1.65;;;;;;;12.78;41.03;100709.78;4205393;33;33636;-81
2024/02/16 09:33:26;;;;;;;3.22;2.22;;;;;;;13.01;40.32;100709.75;4202715;33;32704;-81
2024/02/16 09:35:54;;;;;;;1.17;1.17;;;;;;;13.16;40.65;100718.00;4237092;33;31921;-81
2024/02/16 09:38:23;;;;;;;1.73;0.70;;;;;;;12.98;41.16;100717.81;4211158;33;33356;-81
2024/02/16 09:40:50;;;;;;;2.17;1.30;;;;;;;12.65;40.65;100724.41;4200488;33;33673;-81
2024/02/16 09:43:28;;;;;;;0.57;0.57;;;;;;;12.89;41.05;100722.59;4215076;33;33383;-81
2024/02/16 09:45:58;;;;;;;1.15;0.77;;;;;;;12.84;40.70;100716.62;4214639;33;34008;-81
2024/02/16 09:48:27;;;;;;;2.90;1.37;;;;;;;13.29;40.21;100719.25;4203144;33;33941;-81
2024/02/16 09:50:56;;;;;;;1.33;0.93;;;;;;;13.28;39.85;100718.41;4222109;33;33618;-81
2024/02/16 09:53:27;;;;;;;1.30;1.20;;;;;;;13.86;38.99;100711.59;4204002;33;32223;-81
2024/02/16 09:55:54;;;;;;;1.35;1.05;;;;;;;13.61;38.94;100719.75;4205305;33;33826;-82
2024/02/16 09:58:22;;;;;;;1.70;1.52;;;;;;;13.41;40.15;100715.25;4226301;33;34226;-81
2024/02/16 10:00:51;;;;;;;0.88;0.73;;;;;;;13.65;39.46;100713.38;4203100;33;34297;-81
2024/02/16 10:03:28;;;;;;;5.55;2.35;;;;;;;13.56;40.07;100718.13;4212165;33;33563;-81
2024/02/16 10:06:12;;;;;;;2.72;2.53;;;;;;;13.97;38.83;100707.56;4223623;33;33618;-81
2024/02/16 10:08:56;;;;;;;2.00;1.62;;;;;;;13.85;39.47;100716.06;4236087;33;34224;-81
2024/02/16 10:11:28;;;;;;;1.55;1.45;;;;;;;14.01;40.03;100716.28;4223699;33;34207;-81
2024/02/16 10:14:00;;;;;;;1.75;1.65;;;;;;;14.02;39.43;100707.38;4216332;33;34151;-81
2024/02/16 10:16:29;;;;;;;1.23;0.95;;;;;;;14.11;38.96;100711.44;4227110;33;33377;-81
2024/02/16 10:19:03;;;;;;;4.05;3.42;;;;;;;14.50;37.89;100709.69;4215947;33;32927;-81
2024/02/16 10:21:31;;;;;;;2.25;0.70;;;;;;;14.59;37.84;100708.41;4202620;33;32677;-81
2024/02/16 10:24:07;;;;;;;0.85;0.85;;;;;;;14.66;38.60;100699.19;4215511;33;32731;-81
2024/02/16 10:26:37;;;;;;;0.95;0.93;;;;;;;14.74;37.46;100697.06;4212768;33;34808;-82
2024/02/16 10:29:13;;;;;;;1.23;1.12;;;;;;;15.14;36.71;100694.28;4203768;33;33822;-81
2024/02/16 10:31:41;;;;;;;1.73;1.25;;;;;;;14.90;37.85;100691.88;4215818;33;33640;-81
2024/02/16 10:34:09;;;;;;;2.20;1.05;;;;;;;14.87;37.58;100696.50;4239686;33;34142;-81
2024/02/16 10:36:39;;;;;;;1.90;1.52;;;;;;;14.92;37.31;100690.00;4227050;33;33969;-82
2024/02/16 10:39:11;;;;;;;1.85;0.85;;;;;;;15.39;38.15;100675.34;4192687;33;35027;-81
2024/02/16 10:41:44;;;;;;;0.45;0.45;;;;;;;15.56;36.26;100686.84;4215584;33;34325;-81
2024/02/16 10:44:12;;;;;;;1.83;1.12;;;;;;;15.80;36.05;100679.44;4213953;33;34745;-81
2024/02/16 10:46:40;;;;;;;2.08;1.62;;;;;;;15.94;36.14;100680.53;4213893;33;34069;-82
2024/02/16 10:49:09;;;;;;;4.43;1.05;;;;;;;15.75;36.81;100681.50;4213941;33;34504;-81
2024/02/16 10:51:44;;;;;;;0.50;0.50;;;;;;;15.99;36.22;100670.50;4201632;33;33269;-81
2024/02/16 10:54:14;;;;;;;3.37;1.65;;;;;;;16.41;35.65;100667.37;4216812;33;34838;-81
2024/02/16 10:56:42;;;;;;;0.40;0.40;;;;;;;16.39;35.12;100662.12;4224534;33;34312;-81
2024/02/16 10:59:10;;;;;;;1.87;1.77;;;;;;;16.37;35.06;100664.00;4211781;33;34159;-82
2024/02/16 11:01:43;;;;;;;1.27;1.17;;;;;;;16.30;35.03;100665.28;4215325;33;33384;-81
2024/02/16 11:04:14;;;;;;;4.72;2.17;;;;;;;16.39;35.71;100655.94;4216605;33;34211;-81
2024/02/16 11:06:59;;;;;;;1.02;0.98;;;;;;;16.12;35.89;100656.47;4203801;33;33904;-81
2024/02/16 11:09:34;;;;;;;1.35;1.12;;;;;;;16.36;35.80;100651.63;4208964;33;34103;-81
2024/02/16 11:12:04;;;;;;;5.53;1.37;;;;;;;16.39;35.33;100632.81;4215546;33;34605;-81
2024/02/16 11:14:54;;;;;;;0.43;0.43;;;;;;;16.23;36.34;100639.03;4225378;33;34711;-81
2024/02/16 11:17:23;;;;;;;6.25;2.65;;;;;;;16.43;35.96;100625.53;4215636;33;33937;-81
2024/02/16 11:19:54;;;;;;;5.35;1.45;;;;;;;16.31;35.41;100631.50;4212448;33;34992;-82
2024/02/16 11:22:27;;;;;;;1.12;1.12;;;;;;;16.48;35.35;100622.59;4214492;33;31946;-81
2024/02/16 11:24:55;;;;;;;0.30;0.30;;;;;;;16.45;36.56;100623.63;4215905;33;33334;-82
2024/02/16 11:27:31;;;;;;;0.43;0.43;;;;;;;16.53;36.25;100621.41;4201246;33;32959;-81
2024/02/16 11:30:00;;;;;;;1.12;0.75;;;;;;;16.29;35.60;100622.75;4216705;33;33137;-82
2024/02/16 11:32:32;;;;;;;1.15;1.05;;;;;;;16.03;36.44;100629.47;4223954;33;32785;-81
2024/02/16 11:35:07;;;;;;;0.40;0.40;;;;;;;15.94;36.56;100628.13;4217050;33;34480;-81
2024/02/16 11:37:36;;;;;;;1.45;1.20;;;;;;;15.87;37.16;100624.94;4221004;33;33621;-81